Time;durP1;ratioP1;P1;durP2;ratioP2;P2;SDS_P1;SDS_P2;PMS_P1;PMS_P2;Temp;Humidity;BMP_temperature;BMP_pressure;BME280_temperature;BME280_humidity;BME280_pressure;Samples;Min_cycle;Max_cycle;Signal;HPM_P1;HPM_P2
2021/05/08 00:01:09;;;;;;;0.73;0.50;;;;;;;;;;4996026;28;20048;-76
2021/05/08 00:03:34;;;;;;;0.57;0.57;;;;;;;;;;5013054;28;20030;-77
2021/05/08 00:06:07;;;;;;;0.40;0.40;;;;;;;;;;5013181;28;20036;-77
2021/05/08 00:08:32;;;;;;;0.40;0.40;;;;;;;;;;5013381;28;20018;-77
2021/05/08 00:10:59;;;;;;;0.60;0.57;;;;;;;;;;5001626;28;20149;-76
2021/05/08 00:13:24;;;;;;;0.45;0.45;;;;;;;;;;4993360;28;20026;-76
2021/05/08 00:15:50;;;;;;;0.50;0.50;;;;;;;;;;4993005;28;20022;-76
2021/05/08 00:18:15;;;;;;;0.50;0.50;;;;;;;;;;4992429;28;20028;-75
2021/05/08 00:20:40;;;;;;;0.60;0.60;;;;;;;;;;4993279;28;20018;-75
2021/05/08 00:23:05;;;;;;;0.52;0.47;;;;;;;;;;4997197;28;20457;-75
2021/05/08 00:25:30;;;;;;;0.60;0.60;;;;;;;;;;5013074;28;20037;-75
2021/05/08 00:27:56;;;;;;;0.60;0.50;;;;;;;;;;5012356;28;20473;-75
2021/05/08 00:30:23;;;;;;;0.50;0.50;;;;;;;;;;5011841;28;20049;-75
2021/05/08 00:32:48;;;;;;;0.50;0.50;;;;;;;;;;5012794;28;20042;-75
2021/05/08 00:35:14;;;;;;;0.50;0.50;;;;;;;;;;5013931;28;20100;-74
2021/05/08 00:37:39;;;;;;;1.30;0.40;;;;;;;;;;5008074;28;20105;-74
2021/05/08 00:40:05;;;;;;;0.50;0.50;;;;;;;;;;4996979;28;20026;-77
2021/05/08 00:42:30;;;;;;;0.50;0.50;;;;;;;;;;4996724;28;20470;-75
2021/05/08 00:44:55;;;;;;;0.40;0.40;;;;;;;;;;5007098;28;20450;-76
2021/05/08 00:47:20;;;;;;;0.47;0.47;;;;;;;;;;5016296;28;20046;-76
2021/05/08 00:49:48;;;;;;;0.40;0.40;;;;;;;;;;5016073;28;20033;-75
2021/05/08 00:52:14;;;;;;;0.40;0.40;;;;;;;;;;5016313;28;20041;-76
2021/05/08 00:54:40;;;;;;;0.60;0.60;;;;;;;;;;5014744;28;20014;-75
2021/05/08 00:57:06;;;;;;;0.40;0.40;;;;;;;;;;5016146;28;20028;-75
2021/05/08 00:59:31;;;;;;;0.40;0.40;;;;;;;;;;5014559;28;20074;-75
2021/05/08 01:02:00;;;;;;;0.50;0.50;;;;;;;;;;5014600;28;20041;-75
2021/05/08 01:04:25;;;;;;;0.50;0.50;;;;;;;;;;5015819;28;20018;-75
2021/05/08 01:06:51;;;;;;;0.50;0.50;;;;;;;;;;5014384;28;20121;-75
2021/05/08 01:09:19;;;;;;;0.45;0.45;;;;;;;;;;5015760;28;20053;-76
2021/05/08 01:11:49;;;;;;;0.50;0.50;;;;;;;;;;5015829;28;20036;-75
2021/05/08 01:14:15;;;;;;;0.50;0.50;;;;;;;;;;5015995;28;20018;-76
2021/05/08 01:16:40;;;;;;;0.52;0.52;;;;;;;;;;5016349;28;20037;-76
2021/05/08 01:19:08;;;;;;;0.50;0.50;;;;;;;;;;5016245;28;20026;-76
2021/05/08 01:21:35;;;;;;;0.57;0.57;;;;;;;;;;5014909;28;20454;-76
2021/05/08 01:24:01;;;;;;;0.55;0.55;;;;;;;;;;5015492;28;20435;-76
2021/05/08 01:26:31;;;;;;;0.60;0.60;;;;;;;;;;5014103;28;20091;-75
2021/05/08 01:28:59;;;;;;;0.50;0.50;;;;;;;;;;5015684;28;20380;-75
2021/05/08 01:31:24;;;;;;;0.50;0.50;;;;;;;;;;5015662;28;20029;-75
2021/05/08 01:33:50;;;;;;;0.93;0.60;;;;;;;;;;5014318;28;20025;-75
2021/05/08 01:36:15;;;;;;;0.55;0.55;;;;;;;;;;4995815;28;20022;-75
2021/05/08 01:38:41;;;;;;;0.40;0.40;;;;;;;;;;4995820;28;20374;-75
2021/05/08 01:41:07;;;;;;;0.60;0.60;;;;;;;;;;4995954;28;20108;-75
2021/05/08 01:43:33;;;;;;;0.40;0.40;;;;;;;;;;4995489;28;20030;-75
2021/05/08 01:45:58;;;;;;;0.73;0.50;;;;;;;;;;4995360;28;20036;-75
2021/05/08 01:48:24;;;;;;;0.70;0.50;;;;;;;;;;5008410;28;20426;-75
2021/05/08 01:50:49;;;;;;;0.52;0.52;;;;;;;;;;5009450;28;20370;-75
2021/05/08 01:53:15;;;;;;;0.57;0.57;;;;;;;;;;5009344;28;20018;-75
2021/05/08 01:55:41;;;;;;;0.80;0.80;;;;;;;;;;4997400;28;20018;-75
2021/05/08 01:58:09;;;;;;;0.98;0.88;;;;;;;;;;5014801;28;20033;-76
2021/05/08 02:00:38;;;;;;;0.65;0.65;;;;;;;;;;5014584;28;20096;-76
2021/05/08 02:03:04;;;;;;;0.52;0.50;;;;;;;;;;5015123;28;20590;-75
2021/05/08 02:05:30;;;;;;;0.60;0.60;;;;;;;;;;5014826;28;20113;-76
2021/05/08 02:07:56;;;;;;;0.57;0.57;;;;;;;;;;5014376;28;20111;-75
2021/05/08 02:10:21;;;;;;;0.63;0.63;;;;;;;;;;5014775;28;20442;-76
2021/05/08 02:12:46;;;;;;;0.60;0.60;;;;;;;;;;4997481;28;20046;-75
2021/05/08 02:15:18;;;;;;;0.70;0.70;;;;;;;;;;4995277;28;20014;-75
2021/05/08 02:17:43;;;;;;;0.90;0.90;;;;;;;;;;4995381;28;20153;-76
2021/05/08 02:20:15;;;;;;;0.90;0.90;;;;;;;;;;4999431;28;20457;-75
2021/05/08 02:22:44;;;;;;;0.80;0.80;;;;;;;;;;5014992;28;20024;-76
2021/05/08 02:25:11;;;;;;;0.80;0.80;;;;;;;;;;5014657;28;20205;-76
2021/05/08 02:27:37;;;;;;;0.95;0.95;;;;;;;;;;4997306;28;20026;-76
2021/05/08 02:30:04;;;;;;;0.88;0.88;;;;;;;;;;5010059;28;20432;-75
2021/05/08 02:32:29;;;;;;;0.90;0.90;;;;;;;;;;4994381;28;20026;-75
2021/05/08 02:34:57;;;;;;;1.60;1.15;;;;;;;;;;4994280;28;20023;-75
2021/05/08 02:37:22;;;;;;;0.80;0.80;;;;;;;;;;4994510;28;20053;-75
2021/05/08 02:39:47;;;;;;;1.00;0.90;;;;;;;;;;4994252;28;20374;-76
2021/05/08 02:42:15;;;;;;;1.75;1.00;;;;;;;;;;4994652;28;20023;-75
2021/05/08 02:44:40;;;;;;;1.73;1.05;;;;;;;;;;5000898;28;20022;-75
2021/05/08 02:47:17;;;;;;;0.98;0.93;;;;;;;;;;5013134;28;20499;-75
2021/05/08 02:49:43;;;;;;;1.00;1.00;;;;;;;;;;5014254;28;20053;-75
2021/05/08 02:52:08;;;;;;;0.80;0.80;;;;;;;;;;5013866;28;20050;-75
2021/05/08 02:54:35;;;;;;;0.98;0.88;;;;;;;;;;5014008;28;20025;-75
2021/05/08 02:57:00;;;;;;;0.98;0.85;;;;;;;;;;5013396;28;20030;-75
2021/05/08 02:59:26;;;;;;;0.75;0.75;;;;;;;;;;5013427;28;20171;-75
2021/05/08 03:01:51;;;;;;;0.75;0.75;;;;;;;;;;5014057;28;20076;-74
2021/05/08 03:04:16;;;;;;;0.75;0.75;;;;;;;;;;5013298;28;20034;-75
2021/05/08 03:06:41;;;;;;;0.63;0.63;;;;;;;;;;5012918;28;20026;-75
2021/05/08 03:09:09;;;;;;;0.80;0.80;;;;;;;;;;5012223;28;20022;-76
2021/05/08 03:11:34;;;;;;;1.10;0.82;;;;;;;;;;5007553;28;20117;-76
2021/05/08 03:14:04;;;;;;;0.98;0.70;;;;;;;;;;5013058;28;20089;-76
2021/05/08 03:16:30;;;;;;;0.63;0.63;;;;;;;;;;5008391;28;20022;-76
2021/05/08 03:18:55;;;;;;;0.60;0.60;;;;;;;;;;4993858;28;20014;-76
2021/05/08 03:21:20;;;;;;;0.60;0.60;;;;;;;;;;4994202;28;20040;-76
2021/05/08 03:23:45;;;;;;;0.60;0.60;;;;;;;;;;4993964;28;20574;-76
2021/05/08 03:26:10;;;;;;;1.13;0.70;;;;;;;;;;5009074;28;20026;-75
2021/05/08 03:28:36;;;;;;;0.80;0.80;;;;;;;;;;4993823;28;20026;-76
2021/05/08 03:31:01;;;;;;;0.60;0.60;;;;;;;;;;4993897;28;20387;-75
2021/05/08 03:33:29;;;;;;;0.80;0.68;;;;;;;;;;4993737;28;20085;-75
2021/05/08 03:35:54;;;;;;;0.60;0.60;;;;;;;;;;4994034;28;20102;-76
2021/05/08 03:38:21;;;;;;;0.70;0.70;;;;;;;;;;4992997;28;20114;-76
2021/05/08 03:40:47;;;;;;;0.77;0.60;;;;;;;;;;4993746;28;20018;-75
2021/05/08 03:43:12;;;;;;;0.68;0.68;;;;;;;;;;4993562;28;20025;-76
2021/05/08 03:45:37;;;;;;;0.50;0.50;;;;;;;;;;4993669;28;20018;-76
2021/05/08 03:48:03;;;;;;;1.92;0.68;;;;;;;;;;4993744;28;20510;-75
2021/05/08 03:50:28;;;;;;;0.50;0.50;;;;;;;;;;5005164;28;20014;-75
2021/05/08 03:52:53;;;;;;;0.60;0.60;;;;;;;;;;5012129;28;20045;-76
2021/05/08 03:55:19;;;;;;;0.57;0.57;;;;;;;;;;5012852;28;20025;-76
2021/05/08 03:57:44;;;;;;;0.60;0.60;;;;;;;;;;5013124;28;20033;-75
2021/05/08 04:00:09;;;;;;;0.50;0.50;;;;;;;;;;5012689;28;20065;-77
2021/05/08 04:02:35;;;;;;;0.50;0.50;;;;;;;;;;5013371;28;20430;-77
2021/05/08 04:05:00;;;;;;;0.50;0.50;;;;;;;;;;5012458;28;20030;-75
2021/05/08 04:07:25;;;;;;;0.50;0.50;;;;;;;;;;5012565;28;20037;-75
2021/05/08 04:09:50;;;;;;;0.70;0.70;;;;;;;;;;5014820;28;20026;-75
2021/05/08 04:12:15;;;;;;;0.57;0.57;;;;;;;;;;5017256;28;20036;-75
2021/05/08 04:14:41;;;;;;;0.60;0.60;;;;;;;;;;5016859;28;20022;-75
2021/05/08 04:17:06;;;;;;;0.73;0.73;;;;;;;;;;5016914;28;20026;-75
2021/05/08 04:19:31;;;;;;;0.60;0.60;;;;;;;;;;5017269;28;20109;-75
2021/05/08 04:21:59;;;;;;;0.60;0.60;;;;;;;;;;5016519;28;20100;-75
2021/05/08 04:24:24;;;;;;;0.55;0.55;;;;;;;;;;5017228;28;20021;-75
2021/05/08 04:26:49;;;;;;;0.70;0.63;;;;;;;;;;5015604;28;20029;-74
2021/05/08 04:29:14;;;;;;;0.60;0.60;;;;;;;;;;5016189;28;20010;-75
2021/05/08 04:31:42;;;;;;;0.60;0.60;;;;;;;;;;5015150;28;20085;-75
2021/05/08 04:34:09;;;;;;;0.60;0.60;;;;;;;;;;5016674;28;20026;-76
2021/05/08 04:36:35;;;;;;;0.65;0.65;;;;;;;;;;5016675;28;20527;-74
2021/05/08 04:39:00;;;;;;;2.08;0.80;;;;;;;;;;5015456;28;20034;-75
2021/05/08 04:41:27;;;;;;;0.93;0.80;;;;;;;;;;4996942;28;20505;-76
2021/05/08 04:43:52;;;;;;;0.75;0.75;;;;;;;;;;5001198;28;20025;-75
2021/05/08 04:46:18;;;;;;;0.70;0.70;;;;;;;;;;5014114;28;20026;-75
2021/05/08 04:48:45;;;;;;;0.50;0.50;;;;;;;;;;5015201;28;20117;-74
2021/05/08 04:51:11;;;;;;;0.63;0.63;;;;;;;;;;5016333;28;20462;-75
2021/05/08 04:53:36;;;;;;;1.60;0.70;;;;;;;;;;5015674;28;20034;-75
2021/05/08 04:56:03;;;;;;;0.77;0.77;;;;;;;;;;5016436;28;20029;-75
2021/05/08 04:58:28;;;;;;;0.80;0.80;;;;;;;;;;5015893;28;20010;-76
2021/05/08 05:00:57;;;;;;;1.05;0.82;;;;;;;;;;5015104;28;20072;-75
2021/05/08 05:03:22;;;;;;;0.80;0.80;;;;;;;;;;4996623;28;20042;-76
2021/05/08 05:05:50;;;;;;;0.70;0.70;;;;;;;;;;5004463;28;20022;-75
2021/05/08 05:08:19;;;;;;;1.27;0.95;;;;;;;;;;5015531;28;20032;-75
2021/05/08 05:10:47;;;;;;;1.20;0.80;;;;;;;;;;5015567;28;20093;-76
2021/05/08 05:13:15;;;;;;;0.80;0.80;;;;;;;;;;5015920;28;20014;-76
2021/05/08 05:15:40;;;;;;;0.60;0.60;;;;;;;;;;5010861;28;20347;-75
2021/05/08 05:18:07;;;;;;;0.95;0.80;;;;;;;;;;4996470;28;20026;-75
2021/05/08 05:20:33;;;;;;;0.70;0.70;;;;;;;;;;4994971;28;20058;-76
2021/05/08 05:22:58;;;;;;;0.82;0.80;;;;;;;;;;4998366;28;20056;-74
2021/05/08 05:25:23;;;;;;;1.08;0.95;;;;;;;;;;5015595;28;20057;-76
2021/05/08 05:27:51;;;;;;;1.45;1.00;;;;;;;;;;5015585;28;20101;-75
2021/05/08 05:30:16;;;;;;;1.17;1.00;;;;;;;;;;4996295;28;20034;-78
2021/05/08 05:32:41;;;;;;;0.80;0.80;;;;;;;;;;5011168;28;20028;-75
2021/05/08 05:35:09;;;;;;;1.10;1.00;;;;;;;;;;5014394;28;20025;-75
2021/05/08 05:37:34;;;;;;;0.85;0.70;;;;;;;;;;5012757;28;20123;-74
2021/05/08 05:39:59;;;;;;;1.05;0.90;;;;;;;;;;5014814;28;20092;-75
2021/05/08 05:42:26;;;;;;;1.35;0.85;;;;;;;;;;5014332;28;20026;-75
2021/05/08 05:44:51;;;;;;;1.17;1.00;;;;;;;;;;5012441;28;20471;-75
2021/05/08 05:47:22;;;;;;;1.50;1.40;;;;;;;;;;5001502;28;20045;-75
2021/05/08 05:49:51;;;;;;;1.63;1.27;;;;;;;;;;4995572;28;20011;-74
2021/05/08 05:52:17;;;;;;;1.55;1.30;;;;;;;;;;4998763;28;20459;-74
2021/05/08 05:54:45;;;;;;;1.13;1.05;;;;;;;;;;5014949;28;20022;-75
2021/05/08 05:57:13;;;;;;;1.33;1.23;;;;;;;;;;5013728;28;20052;-75
2021/05/08 05:59:38;;;;;;;1.58;1.30;;;;;;;;;;5014729;28;20093;-75
2021/05/08 06:02:04;;;;;;;1.98;1.10;;;;;;;;;;5011492;28;20156;-75
2021/05/08 06:04:30;;;;;;;2.83;1.52;;;;;;;;;;5014800;28;20053;-73
2021/05/08 06:06:55;;;;;;;1.30;1.20;;;;;;;;;;5008241;28;20124;-75
2021/05/08 06:09:20;;;;;;;1.42;1.30;;;;;;;;;;5004979;28;20021;-74
2021/05/08 06:11:45;;;;;;;1.23;1.13;;;;;;;;;;5010612;28;20037;-73
2021/05/08 06:14:11;;;;;;;1.30;1.20;;;;;;;;;;5013968;28;20100;-74
2021/05/08 06:16:38;;;;;;;1.25;1.15;;;;;;;;;;4999827;28;20110;-74
2021/05/08 06:19:03;;;;;;;1.38;1.27;;;;;;;;;;4995030;28;20054;-74
2021/05/08 06:21:28;;;;;;;1.33;1.20;;;;;;;;;;4995119;28;20416;-74
2021/05/08 06:23:54;;;;;;;1.40;1.30;;;;;;;;;;5007143;28;20030;-74
2021/05/08 06:26:19;;;;;;;1.55;1.20;;;;;;;;;;5013759;28;20417;-74
2021/05/08 06:28:44;;;;;;;1.70;1.60;;;;;;;;;;5014090;28;20375;-74
2021/05/08 06:31:11;;;;;;;1.70;1.60;;;;;;;;;;5014260;28;20041;-74
2021/05/08 06:33:37;;;;;;;2.47;1.60;;;;;;;;;;5011225;28;20421;-74
2021/05/08 06:36:02;;;;;;;1.55;1.30;;;;;;;;;;5013401;28;20096;-74
2021/05/08 06:38:30;;;;;;;1.80;1.25;;;;;;;;;;5013777;28;20104;-78
2021/05/08 06:40:55;;;;;;;1.13;1.10;;;;;;;;;;5018023;28;20022;-78
2021/05/08 06:43:20;;;;;;;2.20;1.20;;;;;;;;;;5014039;28;20049;-78
2021/05/08 06:45:45;;;;;;;1.20;1.10;;;;;;;;;;5013197;28;20032;-78
2021/05/08 06:48:11;;;;;;;1.55;1.20;;;;;;;;;;5014063;28;20037;-78
2021/05/08 06:50:38;;;;;;;1.35;1.13;;;;;;;;;;5013211;28;20021;-78
2021/05/08 06:53:03;;;;;;;0.90;0.80;;;;;;;;;;5013361;28;20038;-78
2021/05/08 06:55:31;;;;;;;0.93;0.85;;;;;;;;;;5029343;28;20378;-78
2021/05/08 06:57:58;;;;;;;0.80;0.80;;;;;;;;;;5016881;28;20033;-78
2021/05/08 07:00:28;;;;;;;1.23;1.08;;;;;;;;;;5013748;28;20022;-77
2021/05/08 07:02:53;;;;;;;1.60;1.10;;;;;;;;;;5018593;28;20029;-77
2021/05/08 07:05:19;;;;;;;0.88;0.82;;;;;;;;;;5010826;28;20033;-75
2021/05/08 07:07:44;;;;;;;0.98;0.90;;;;;;;;;;5007355;28;20026;-79
2021/05/08 07:10:10;;;;;;;1.05;0.90;;;;;;;;;;5012646;28;20076;-80
2021/05/08 07:12:35;;;;;;;1.38;0.80;;;;;;;;;;5006596;28;20038;-79
2021/05/08 07:15:00;;;;;;;0.60;0.60;;;;;;;;;;5013671;28;20026;-79
2021/05/08 07:17:25;;;;;;;1.00;0.90;;;;;;;;;;5016610;28;20030;-77
2021/05/08 07:19:53;;;;;;;1.63;1.20;;;;;;;;;;5016706;28;20025;-79
2021/05/08 07:22:18;;;;;;;1.67;1.20;;;;;;;;;;5014862;28;20366;-78
2021/05/08 07:24:47;;;;;;;0.70;0.70;;;;;;;;;;5030084;28;20032;-78
2021/05/08 07:27:14;;;;;;;1.35;1.00;;;;;;;;;;5024464;28;20069;-78
2021/05/08 07:29:41;;;;;;;1.35;0.95;;;;;;;;;;5026593;28;20009;-78
2021/05/08 07:32:07;;;;;;;1.00;0.90;;;;;;;;;;5015490;28;20446;-78
2021/05/08 07:34:32;;;;;;;1.00;0.95;;;;;;;;;;5014537;28;20032;-78
2021/05/08 07:36:57;;;;;;;0.90;0.90;;;;;;;;;;5015177;28;20057;-78
2021/05/08 07:39:25;;;;;;;1.00;0.90;;;;;;;;;;5009600;28;20138;-79
2021/05/08 07:41:50;;;;;;;1.02;0.98;;;;;;;;;;5014908;28;20038;-79
2021/05/08 07:44:16;;;;;;;0.95;0.85;;;;;;;;;;5014826;28;20350;-77
2021/05/08 07:46:41;;;;;;;2.10;1.02;;;;;;;;;;5022406;28;20064;-79
2021/05/08 07:49:09;;;;;;;0.93;0.90;;;;;;;;;;5009724;28;20022;-79
2021/05/08 07:51:34;;;;;;;0.70;0.70;;;;;;;;;;5016635;28;20030;-77
2021/05/08 07:53:59;;;;;;;1.00;0.90;;;;;;;;;;5014409;28;20069;-75
2021/05/08 07:56:24;;;;;;;1.10;0.88;;;;;;;;;;5017148;28;20839;-75
2021/05/08 07:58:49;;;;;;;1.13;0.90;;;;;;;;;;5015438;28;20088;-76
2021/05/08 08:01:17;;;;;;;0.80;0.80;;;;;;;;;;5021628;28;20371;-75
2021/05/08 08:03:42;;;;;;;1.52;0.88;;;;;;;;;;5025660;28;20034;-75
2021/05/08 08:06:07;;;;;;;0.80;0.80;;;;;;;;;;5026065;28;20025;-75
2021/05/08 08:08:33;;;;;;;1.02;0.98;;;;;;;;;;5024309;28;20020;-75
2021/05/08 08:11:00;;;;;;;1.10;0.93;;;;;;;;;;5019817;28;20390;-76
2021/05/08 08:13:25;;;;;;;0.93;0.80;;;;;;;;;;5015678;28;20018;-75
2021/05/08 08:15:51;;;;;;;0.80;0.80;;;;;;;;;;5011462;28;20014;-74
2021/05/08 08:18:19;;;;;;;1.20;1.08;;;;;;;;;;5012397;28;20590;-75
2021/05/08 08:20:44;;;;;;;0.82;0.80;;;;;;;;;;5007940;28;20332;-75
2021/05/08 08:23:09;;;;;;;1.63;1.15;;;;;;;;;;5004935;28;20018;-75
2021/05/08 08:25:35;;;;;;;2.50;1.52;;;;;;;;;;5006544;28;20018;-76
2021/05/08 08:28:00;;;;;;;1.60;1.20;;;;;;;;;;5011775;28;20030;-75
2021/05/08 08:30:25;;;;;;;1.20;1.10;;;;;;;;;;5011612;28;20036;-75
2021/05/08 08:32:50;;;;;;;1.17;1.10;;;;;;;;;;5007457;28;20033;-76
2021/05/08 08:35:16;;;;;;;0.90;0.90;;;;;;;;;;5011236;28;20033;-75
2021/05/08 08:37:41;;;;;;;0.80;0.80;;;;;;;;;;5012327;28;20104;-76
2021/05/08 08:40:07;;;;;;;1.00;0.75;;;;;;;;;;5012876;28;20085;-76
2021/05/08 08:42:33;;;;;;;0.70;0.70;;;;;;;;;;5012733;28;20040;-75
2021/05/08 08:44:59;;;;;;;0.73;0.73;;;;;;;;;;5012236;28;20445;-75
2021/05/08 08:47:28;;;;;;;0.82;0.82;;;;;;;;;;5012664;28;20025;-75
2021/05/08 08:50:08;;;;;;;0.80;0.80;;;;;;;;;;5012366;28;20022;-76
2021/05/08 08:52:33;;;;;;;1.25;0.80;;;;;;;;;;5008066;28;20018;-75
2021/05/08 08:54:59;;;;;;;0.50;0.50;;;;;;;;;;5012617;28;20091;-75
2021/05/08 08:57:36;;;;;;;0.70;0.70;;;;;;;;;;5015207;28;20020;-75
2021/05/08 09:00:03;;;;;;;0.60;0.60;;;;;;;;;;5016103;28;20121;-76
2021/05/08 09:02:29;;;;;;;1.02;0.90;;;;;;;;;;5015554;28;20036;-75
2021/05/08 09:04:57;;;;;;;0.82;0.70;;;;;;;;;;5016277;28;20026;-76
2021/05/08 09:07:25;;;;;;;0.70;0.70;;;;;;;;;;5007130;28;20100;-77
2021/05/08 09:09:52;;;;;;;0.93;0.80;;;;;;;;;;5015278;28;20014;-77
2021/05/08 09:12:24;;;;;;;0.88;0.80;;;;;;;;;;5014543;28;20026;-75
2021/05/08 09:14:50;;;;;;;0.95;0.80;;;;;;;;;;5000526;28;20377;-75
2021/05/08 09:17:17;;;;;;;0.80;0.60;;;;;;;;;;5014765;28;20105;-76
2021/05/08 09:19:56;;;;;;;0.70;0.60;;;;;;;;;;5015831;28;20018;-76
2021/05/08 09:22:23;;;;;;;1.77;0.60;;;;;;;;;;5016026;28;20022;-77
2021/05/08 09:25:11;;;;;;;0.63;0.63;;;;;;;;;;5014947;28;20028;-76
2021/05/08 09:27:36;;;;;;;1.02;0.60;;;;;;;;;;5010020;28;20120;-78
2021/05/08 09:30:05;;;;;;;0.70;0.70;;;;;;;;;;5006623;28;20528;-76
2021/05/08 09:32:40;;;;;;;0.70;0.70;;;;;;;;;;5016005;28;20021;-76
2021/05/08 09:35:09;;;;;;;0.60;0.60;;;;;;;;;;5016380;28;20032;-76
2021/05/08 09:37:34;;;;;;;1.48;0.57;;;;;;;;;;5014274;28;20530;-77
2021/05/08 09:40:12;;;;;;;0.60;0.60;;;;;;;;;;5015410;28;20053;-76
2021/05/08 09:42:44;;;;;;;0.98;0.63;;;;;;;;;;5014516;28;20026;-77
2021/05/08 09:45:09;;;;;;;1.95;0.70;;;;;;;;;;5014926;28;20026;-75
2021/05/08 09:47:34;;;;;;;0.60;0.60;;;;;;;;;;5014492;28;20025;-76
2021/05/08 09:50:02;;;;;;;0.57;0.57;;;;;;;;;;5009547;28;20034;-75
2021/05/08 09:52:39;;;;;;;1.33;0.52;;;;;;;;;;5011052;28;20033;-76
2021/05/08 09:55:09;;;;;;;1.30;0.90;;;;;;;;;;5022220;28;20033;-75
2021/05/08 09:57:34;;;;;;;1.08;0.90;;;;;;;;;;5014869;28;20140;-75
2021/05/08 09:59:59;;;;;;;1.40;0.87;;;;;;;;;;5013861;28;20425;-76
2021/05/08 10:02:24;;;;;;;1.55;0.90;;;;;;;;;;5015052;28;20253;-75
2021/05/08 10:04:51;;;;;;;1.00;0.80;;;;;;;;;;5013812;28;20022;-74
2021/05/08 10:07:17;;;;;;;0.85;0.70;;;;;;;;;;5014396;28;20745;-76
2021/05/08 10:09:43;;;;;;;0.80;0.80;;;;;;;;;;5013162;28;20434;-78
2021/05/08 10:12:09;;;;;;;0.63;0.63;;;;;;;;;;5015799;28;20407;-79
2021/05/08 10:14:38;;;;;;;0.70;0.70;;;;;;;;;;5014443;28;20869;-79
2021/05/08 10:17:03;;;;;;;0.60;0.60;;;;;;;;;;5024241;28;20025;-78
2021/05/08 10:19:32;;;;;;;0.80;0.80;;;;;;;;;;5012402;28;20030;-77
2021/05/08 10:21:58;;;;;;;0.73;0.60;;;;;;;;;;5010621;28;20463;-76
2021/05/08 10:24:27;;;;;;;1.65;0.70;;;;;;;;;;5013563;28;20021;-78
2021/05/08 10:26:57;;;;;;;0.70;0.70;;;;;;;;;;5013414;28;20117;-77
2021/05/08 10:29:26;;;;;;;1.88;0.73;;;;;;;;;;5015788;28;20010;-74
2021/05/08 10:31:53;;;;;;;0.77;0.77;;;;;;;;;;5015168;28;20033;-75
2021/05/08 10:34:29;;;;;;;0.80;0.68;;;;;;;;;;5012194;28;20022;-75
2021/05/08 10:37:03;;;;;;;0.68;0.60;;;;;;;;;;5013684;28;20532;-75
2021/05/08 10:39:46;;;;;;;2.15;0.80;;;;;;;;;;5011488;28;20402;-75
2021/05/08 10:42:28;;;;;;;2.50;1.20;;;;;;;;;;5016956;28;20366;-75
2021/05/08 10:44:53;;;;;;;2.95;0.93;;;;;;;;;;5013804;28;20025;-75
2021/05/08 10:47:18;;;;;;;0.93;0.82;;;;;;;;;;5014542;28;20018;-75
2021/05/08 10:50:04;;;;;;;1.40;0.87;;;;;;;;;;5012995;28;20037;-75
2021/05/08 10:52:51;;;;;;;0.77;0.77;;;;;;;;;;5031670;28;20248;-75
2021/05/08 10:55:23;;;;;;;0.88;0.70;;;;;;;;;;5012337;28;20419;-75
2021/05/08 10:58:07;;;;;;;0.60;0.60;;;;;;;;;;5010963;28;20037;-76
2021/05/08 11:00:42;;;;;;;0.63;0.50;;;;;;;;;;4996964;28;20024;-74
2021/05/08 11:03:08;;;;;;;;;;;;;;;;;;4994860;28;20397;-75
2021/05/08 11:05:35;;;;;;;1.60;0.50;;;;;;;;;;5000924;28;20017;-75
2021/05/08 11:08:20;;;;;;;0.63;0.52;;;;;;;;;;4994366;28;20104;-73
2021/05/08 11:10:52;;;;;;;1.08;0.40;;;;;;;;;;4993737;28;20083;-75
2021/05/08 11:13:21;;;;;;;0.68;0.50;;;;;;;;;;5006706;28;20020;-75
2021/05/08 11:15:49;;;;;;;1.65;0.45;;;;;;;;;;5023972;28;20034;-75
2021/05/08 11:18:29;;;;;;;2.53;0.68;;;;;;;;;;4993795;28;20022;-75
2021/05/08 11:20:58;;;;;;;0.70;0.70;;;;;;;;;;4993935;28;20010;-74
2021/05/08 11:23:23;;;;;;;0.70;0.70;;;;;;;;;;4994096;28;20026;-75
2021/05/08 11:25:49;;;;;;;1.00;0.80;;;;;;;;;;4997750;28;20109;-74
2021/05/08 11:28:16;;;;;;;2.25;0.70;;;;;;;;;;5013637;28;20086;-74
2021/05/08 11:30:51;;;;;;;0.50;0.50;;;;;;;;;;5013420;28;20048;-73
2021/05/08 11:33:26;;;;;;;0.40;0.40;;;;;;;;;;5012388;28;20025;-74
2021/05/08 11:36:03;;;;;;;0.30;0.30;;;;;;;;;;5013419;28;20033;-74
2021/05/08 11:38:29;;;;;;;0.47;0.40;;;;;;;;;;5013457;28;20061;-74
2021/05/08 11:40:54;;;;;;;0.52;0.20;;;;;;;;;;5013633;28;20435;-74
2021/05/08 11:43:22;;;;;;;0.45;0.40;;;;;;;;;;5012621;28;20045;-76
2021/05/08 11:45:47;;;;;;;6.28;1.40;;;;;;;;;;5002483;28;20022;-77
2021/05/08 11:48:18;;;;;;;5.50;1.97;;;;;;;;;;4993472;28;20401;-76
2021/05/08 11:50:46;;;;;;;7.10;1.90;;;;;;;;;;5000564;28;20329;-77
2021/05/08 11:53:17;;;;;;;3.97;1.70;;;;;;;;;;5013098;28;20033;-77
2021/05/08 11:55:46;;;;;;;3.78;1.48;;;;;;;;;;5012607;28;20403;-77
2021/05/08 11:58:11;;;;;;;2.35;1.27;;;;;;;;;;5013400;28;20022;-77
2021/05/08 12:00:39;;;;;;;1.90;0.98;;;;;;;;;;5013286;28;20512;-76
2021/05/08 12:03:25;;;;;;;1.23;0.90;;;;;;;;;;5013358;28;20022;-76
2021/05/08 12:05:51;;;;;;;1.42;0.90;;;;;;;;;;5011075;28;20034;-76
2021/05/08 12:08:23;;;;;;;0.88;0.60;;;;;;;;;;5012485;28;20108;-76
2021/05/08 12:10:52;;;;;;;1.58;0.60;;;;;;;;;;4994952;28;20031;-77
2021/05/08 12:13:17;;;;;;;1.02;0.40;;;;;;;;;;5007502;28;20076;-76
2021/05/08 12:15:51;;;;;;;1.02;0.60;;;;;;;;;;5006021;28;20026;-77
2021/05/08 12:18:18;;;;;;;0.65;0.60;;;;;;;;;;4992600;28;20097;-77
2021/05/08 12:20:45;;;;;;;1.50;0.50;;;;;;;;;;4993125;28;20052;-76
2021/05/08 12:23:14;;;;;;;2.33;0.60;;;;;;;;;;4992203;28;20038;-76
2021/05/08 12:25:39;;;;;;;0.40;0.40;;;;;;;;;;4992203;28;20177;-77
2021/05/08 12:28:17;;;;;;;0.47;0.40;;;;;;;;;;5010090;28;20104;-78
2021/05/08 12:30:47;;;;;;;0.38;0.38;;;;;;;;;;5012587;28;20022;-77
2021/05/08 12:33:20;;;;;;;0.80;0.40;;;;;;;;;;5016662;28;20411;-76
2021/05/08 12:35:46;;;;;;;0.20;0.20;;;;;;;;;;5016959;28;20022;-77
2021/05/08 12:38:11;;;;;;;0.30;0.30;;;;;;;;;;5012038;28;20478;-74
2021/05/08 12:40:39;;;;;;;0.45;0.40;;;;;;;;;;4997018;28;20030;-74
2021/05/08 12:43:04;;;;;;;0.20;0.20;;;;;;;;;;5000130;28;20022;-75
2021/05/08 12:45:30;;;;;;;0.20;0.20;;;;;;;;;;5016480;28;20037;-73
2021/05/08 12:47:55;;;;;;;0.30;0.30;;;;;;;;;;5016068;28;20025;-73
2021/05/08 12:50:25;;;;;;;0.80;0.40;;;;;;;;;;5016414;28;20018;-74
2021/05/08 12:52:57;;;;;;;0.68;0.50;;;;;;;;;;5010406;28;20041;-74
2021/05/08 12:55:26;;;;;;;0.22;0.22;;;;;;;;;;5008284;28;20111;-74
2021/05/08 12:57:51;;;;;;;0.20;0.20;;;;;;;;;;4996199;28;20026;-76
2021/05/08 13:00:18;;;;;;;0.25;0.25;;;;;;;;;;5011909;28;20467;-74
2021/05/08 13:02:44;;;;;;;0.20;0.20;;;;;;;;;;5014787;28;20443;-73
2021/05/08 13:05:10;;;;;;;0.20;0.20;;;;;;;;;;5007726;28;20510;-77
2021/05/08 13:07:38;;;;;;;0.30;0.30;;;;;;;;;;5011628;28;20045;-74
2021/05/08 13:10:15;;;;;;;0.30;0.30;;;;;;;;;;5015818;28;20470;-75
2021/05/08 13:12:41;;;;;;;0.30;0.30;;;;;;;;;;5015680;28;20026;-74
2021/05/08 13:15:14;;;;;;;0.30;0.20;;;;;;;;;;5014989;28;20034;-75
2021/05/08 13:17:39;;;;;;;0.20;0.20;;;;;;;;;;5003657;28;20451;-76
2021/05/08 13:20:05;;;;;;;0.43;0.35;;;;;;;;;;5013205;28;20107;-74
2021/05/08 13:22:32;;;;;;;0.60;0.45;;;;;;;;;;5014487;28;20026;-73
2021/05/08 13:24:58;;;;;;;0.40;0.30;;;;;;;;;;5014725;28;20462;-74
2021/05/08 13:27:23;;;;;;;0.30;0.30;;;;;;;;;;5014771;28;20076;-75
2021/05/08 13:29:48;;;;;;;0.63;0.43;;;;;;;;;;5015098;28;20442;-75
2021/05/08 13:32:38;;;;;;;0.53;0.50;;;;;;;;;;5013914;28;20033;-74
2021/05/08 13:35:04;;;;;;;0.40;0.40;;;;;;;;;;5008143;28;20268;-75
2021/05/08 13:37:33;;;;;;;0.30;0.20;;;;;;;;;;5014051;28;20433;-75
2021/05/08 13:39:58;;;;;;;0.75;0.40;;;;;;;;;;5014427;28;20045;-76
2021/05/08 13:42:23;;;;;;;0.40;0.40;;;;;;;;;;5014238;28;20017;-75
2021/05/08 13:44:49;;;;;;;0.30;0.30;;;;;;;;;;5015155;28;20091;-74
2021/05/08 13:47:23;;;;;;;0.38;0.38;;;;;;;;;;5014604;28;20029;-73
2021/05/08 13:49:49;;;;;;;0.30;0.30;;;;;;;;;;5013864;28;20443;-74
2021/05/08 13:52:14;;;;;;;0.30;0.30;;;;;;;;;;5004441;28;20040;-73
2021/05/08 13:54:42;;;;;;;0.45;0.40;;;;;;;;;;5011577;28;20029;-74
2021/05/08 13:57:07;;;;;;;0.80;0.40;;;;;;;;;;5014187;28;20151;-74
2021/05/08 13:59:33;;;;;;;0.20;0.20;;;;;;;;;;5013958;28;20062;-75
2021/05/08 14:01:58;;;;;;;0.20;0.20;;;;;;;;;;5013415;28;20292;-74
2021/05/08 14:04:25;;;;;;;0.32;0.30;;;;;;;;;;5013370;28;20469;-73
2021/05/08 14:06:51;;;;;;;0.55;0.40;;;;;;;;;;5018121;28;20029;-74
2021/05/08 14:09:16;;;;;;;0.40;0.40;;;;;;;;;;5010656;28;20172;-74
2021/05/08 14:11:41;;;;;;;0.40;0.40;;;;;;;;;;5004631;28;20683;-75
2021/05/08 14:14:06;;;;;;;0.43;0.40;;;;;;;;;;5014794;28;20080;-74
2021/05/08 14:16:31;;;;;;;0.40;0.40;;;;;;;;;;5014739;28;20030;-74
2021/05/08 14:18:59;;;;;;;0.40;0.40;;;;;;;;;;5014597;28;20100;-74
2021/05/08 14:21:25;;;;;;;1.50;0.50;;;;;;;;;;5013750;28;20053;-74
2021/05/08 14:23:50;;;;;;;0.47;0.40;;;;;;;;;;5014334;28;20052;-74
2021/05/08 14:26:15;;;;;;;0.45;0.43;;;;;;;;;;5014682;28;20033;-74
2021/05/08 14:28:41;;;;;;;1.05;0.40;;;;;;;;;;5014856;28;20022;-73
2021/05/08 14:31:06;;;;;;;0.47;0.47;;;;;;;;;;5014949;28;20065;-74
2021/05/08 14:33:31;;;;;;;0.40;0.40;;;;;;;;;;5013864;28;20117;-75
2021/05/08 14:35:56;;;;;;;0.50;0.50;;;;;;;;;;5012075;28;20265;-75
2021/05/08 14:38:24;;;;;;;0.40;0.40;;;;;;;;;;5021803;28;20062;-74
2021/05/08 14:40:51;;;;;;;2.08;0.45;;;;;;;;;;5020727;28;20022;-81
2021/05/08 14:43:19;;;;;;;0.60;0.40;;;;;;;;;;5013321;28;20037;-79